sensor_id;sensor_type;location;lat;lon;timestamp;temperature;humidity
15997;DHT22;8103;51.340;12.326;2023-03-19T00:00:42;11.00;95.70
15997;DHT22;8103;51.340;12.326;2023-03-19T00:03:09;11.00;96.10
15997;DHT22;8103;51.340;12.326;2023-03-19T00:05:36;11.00;96.10
15997;DHT22;8103;51.340;12.326;2023-03-19T00:08:04;11.10;96.10
15997;DHT22;8103;51.340;12.326;2023-03-19T00:10:31;11.00;96.40
15997;DHT22;8103;51.340;12.326;2023-03-19T00:12:58;11.00;97.10
15997;DHT22;8103;51.340;12.326;2023-03-19T00:15:25;11.00;96.60
15997;DHT22;8103;51.340;12.326;2023-03-19T00:17:52;11.00;99.90
15997;DHT22;8103;51.340;12.326;2023-03-19T00:20:19;11.00;95.30
15997;DHT22;8103;51.340;12.326;2023-03-19T00:22:47;11.00;95.30
15997;DHT22;8103;51.340;12.326;2023-03-19T00:25:14;11.00;95.30
15997;DHT22;8103;51.340;12.326;2023-03-19T00:27:41;11.00;95.30
15997;DHT22;8103;51.340;12.326;2023-03-19T00:30:09;11.00;95.20
15997;DHT22;8103;51.340;12.326;2023-03-19T00:32:36;11.00;95.20
15997;DHT22;8103;51.340;12.326;2023-03-19T00:35:05;11.10;95.10
15997;DHT22;8103;51.340;12.326;2023-03-19T00:37:34;11.10;95.00
15997;DHT22;8103;51.340;12.326;2023-03-19T00:40:02;11.10;94.90
15997;DHT22;8103;51.340;12.326;2023-03-19T00:42:31;11.10;94.90
15997;DHT22;8103;51.340;12.326;2023-03-19T00:44:58;11.10;94.80
15997;DHT22;8103;51.340;12.326;2023-03-19T00:47:25;11.10;94.80
15997;DHT22;8103;51.340;12.326;2023-03-19T00:49:53;11.10;94.80
15997;DHT22;8103;51.340;12.326;2023-03-19T00:52:19;11.20;94.70
15997;DHT22;8103;51.340;12.326;2023-03-19T00:54:46;11.20;94.50
15997;DHT22;8103;51.340;12.326;2023-03-19T00:57:13;11.20;94.40
15997;DHT22;8103;51.340;12.326;2023-03-19T00:59:40;11.20;94.10
15997;DHT22;8103;51.340;12.326;2023-03-19T01:02:07;11.30;94.10
15997;DHT22;8103;51.340;12.326;2023-03-19T01:04:34;11.30;93.90
15997;DHT22;8103;51.340;12.326;2023-03-19T01:07:02;11.20;93.80
15997;DHT22;8103;51.340;12.326;2023-03-19T01:09:29;11.30;93.70
15997;DHT22;8103;51.340;12.326;2023-03-19T01:11:56;11.30;93.50
15997;DHT22;8103;51.340;12.326;2023-03-19T01:14:24;11.30;93.40
15997;DHT22;8103;51.340;12.326;2023-03-19T01:16:50;11.30;93.30
15997;DHT22;8103;51.340;12.326;2023-03-19T01:19:17;11.20;93.10
15997;DHT22;8103;51.340;12.326;2023-03-19T01:21:45;11.20;93.10
15997;DHT22;8103;51.340;12.326;2023-03-19T01:24:12;11.20;93.00
15997;DHT22;8103;51.340;12.326;2023-03-19T01:26:39;11.20;92.90
15997;DHT22;8103;51.340;12.326;2023-03-19T01:29:07;11.20;93.00
15997;DHT22;8103;51.340;12.326;2023-03-19T01:31:35;11.20;92.90
15997;DHT22;8103;51.340;12.326;2023-03-19T01:34:02;11.10;92.80
15997;DHT22;8103;51.340;12.326;2023-03-19T01:36:29;11.10;93.20
15997;DHT22;8103;51.340;12.326;2023-03-19T01:38:57;11.10;93.00
15997;DHT22;8103;51.340;12.326;2023-03-19T01:41:24;11.10;93.00
15997;DHT22;8103;51.340;12.326;2023-03-19T01:43:51;11.10;93.10
15997;DHT22;8103;51.340;12.326;2023-03-19T01:46:32;11.10;93.00
15997;DHT22;8103;51.340;12.326;2023-03-19T01:49:06;11.00;93.00
15997;DHT22;8103;51.340;12.326;2023-03-19T01:51:38;11.00;93.30
15997;DHT22;8103;51.340;12.326;2023-03-19T01:54:14;11.00;93.30
15997;DHT22;8103;51.340;12.326;2023-03-19T01:56:46;11.00;93.50
15997;DHT22;8103;51.340;12.326;2023-03-19T01:59:26;11.00;93.40
15997;DHT22;8103;51.340;12.326;2023-03-19T02:02:00;11.00;93.60
15997;DHT22;8103;51.340;12.326;2023-03-19T02:04:33;11.00;93.80
15997;DHT22;8103;51.340;12.326;2023-03-19T02:07:04;11.00;94.00
15997;DHT22;8103;51.340;12.326;2023-03-19T02:09:33;10.90;93.40
15997;DHT22;8103;51.340;12.326;2023-03-19T02:12:00;10.90;93.70
15997;DHT22;8103;51.340;12.326;2023-03-19T02:14:27;10.90;93.50
15997;DHT22;8103;51.340;12.326;2023-03-19T02:16:54;11.00;93.40
15997;DHT22;8103;51.340;12.326;2023-03-19T02:19:42;11.00;93.50
15997;DHT22;8103;51.340;12.326;2023-03-19T02:22:28;11.00;93.60
15997;DHT22;8103;51.340;12.326;2023-03-19T02:25:20;11.00;93.70
15997;DHT22;8103;51.340;12.326;2023-03-19T02:27:56;11.00;93.60
15997;DHT22;8103;51.340;12.326;2023-03-19T02:30:30;11.00;93.60
15997;DHT22;8103;51.340;12.326;2023-03-19T02:32:58;11.00;94.20
15997;DHT22;8103;51.340;12.326;2023-03-19T02:35:28;11.00;93.70
15997;DHT22;8103;51.340;12.326;2023-03-19T02:37:57;11.00;94.20
15997;DHT22;8103;51.340;12.326;2023-03-19T02:40:30;11.00;94.00
15997;DHT22;8103;51.340;12.326;2023-03-19T02:43:04;10.90;93.80
15997;DHT22;8103;51.340;12.326;2023-03-19T02:45:31;10.90;94.10
15997;DHT22;8103;51.340;12.326;2023-03-19T02:47:59;10.90;94.50
15997;DHT22;8103;51.340;12.326;2023-03-19T02:50:26;10.90;94.00
15997;DHT22;8103;51.340;12.326;2023-03-19T02:52:52;10.90;94.00
15997;DHT22;8103;51.340;12.326;2023-03-19T02:55:19;10.90;94.00
15997;DHT22;8103;51.340;12.326;2023-03-19T02:57:47;10.90;93.90
15997;DHT22;8103;51.340;12.326;2023-03-19T03:00:16;10.90;94.00
15997;DHT22;8103;51.340;12.326;2023-03-19T03:02:44;10.90;94.30
15997;DHT22;8103;51.340;12.326;2023-03-19T03:05:11;10.90;94.30
15997;DHT22;8103;51.340;12.326;2023-03-19T03:07:40;10.90;93.70
15997;DHT22;8103;51.340;12.326;2023-03-19T03:10:10;10.90;94.00
15997;DHT22;8103;51.340;12.326;2023-03-19T03:12:37;10.90;93.60
15997;DHT22;8103;51.340;12.326;2023-03-19T03:15:05;10.90;93.80
15997;DHT22;8103;51.340;12.326;2023-03-19T03:17:38;10.90;93.50
15997;DHT22;8103;51.340;12.326;2023-03-19T03:20:06;10.90;94.70
15997;DHT22;8103;51.340;12.326;2023-03-19T03:22:34;10.90;93.40
15997;DHT22;8103;51.340;12.326;2023-03-19T03:25:01;10.90;93.10
15997;DHT22;8103;51.340;12.326;2023-03-19T03:27:28;10.90;92.90
15997;DHT22;8103;51.340;12.326;2023-03-19T03:29:55;10.90;92.90
15997;DHT22;8103;51.340;12.326;2023-03-19T03:32:22;10.90;92.90
15997;DHT22;8103;51.340;12.326;2023-03-19T03:34:49;10.80;92.80
15997;DHT22;8103;51.340;12.326;2023-03-19T03:37:16;10.80;92.90
15997;DHT22;8103;51.340;12.326;2023-03-19T03:39:43;10.80;92.90
15997;DHT22;8103;51.340;12.326;2023-03-19T03:42:10;10.80;92.90
15997;DHT22;8103;51.340;12.326;2023-03-19T03:44:37;10.90;92.90
15997;DHT22;8103;51.340;12.326;2023-03-19T03:47:04;10.90;92.80
15997;DHT22;8103;51.340;12.326;2023-03-19T03:49:32;10.90;92.80
15997;DHT22;8103;51.340;12.326;2023-03-19T03:51:58;10.80;92.80
15997;DHT22;8103;51.340;12.326;2023-03-19T03:54:25;10.90;92.70
15997;DHT22;8103;51.340;12.326;2023-03-19T03:56:52;10.80;92.60
15997;DHT22;8103;51.340;12.326;2023-03-19T03:59:19;10.80;92.70
15997;DHT22;8103;51.340;12.326;2023-03-19T04:01:47;10.80;92.90
15997;DHT22;8103;51.340;12.326;2023-03-19T04:04:14;10.70;92.90
15997;DHT22;8103;51.340;12.326;2023-03-19T04:06:41;10.70;93.00
15997;DHT22;8103;51.340;12.326;2023-03-19T04:09:07;10.70;92.90
15997;DHT22;8103;51.340;12.326;2023-03-19T04:11:35;10.70;93.00
15997;DHT22;8103;51.340;12.326;2023-03-19T04:14:02;10.70;92.90
15997;DHT22;8103;51.340;12.326;2023-03-19T04:16:30;10.70;93.00
15997;DHT22;8103;51.340;12.326;2023-03-19T04:18:57;10.80;92.90
15997;DHT22;8103;51.340;12.326;2023-03-19T04:21:24;10.80;92.80
15997;DHT22;8103;51.340;12.326;2023-03-19T04:23:51;10.90;92.80
15997;DHT22;8103;51.340;12.326;2023-03-19T04:26:18;10.80;93.30
15997;DHT22;8103;51.340;12.326;2023-03-19T04:28:45;10.80;92.90
15997;DHT22;8103;51.340;12.326;2023-03-19T04:31:12;10.70;93.10
15997;DHT22;8103;51.340;12.326;2023-03-19T04:33:39;10.70;93.80
15997;DHT22;8103;51.340;12.326;2023-03-19T04:36:06;10.60;94.30
15997;DHT22;8103;51.340;12.326;2023-03-19T04:38:33;10.50;93.60
15997;DHT22;8103;51.340;12.326;2023-03-19T04:41:00;10.50;94.30
15997;DHT22;8103;51.340;12.326;2023-03-19T04:43:27;10.40;93.60
15997;DHT22;8103;51.340;12.326;2023-03-19T04:45:55;10.30;93.20
15997;DHT22;8103;51.340;12.326;2023-03-19T04:48:22;10.30;93.70
15997;DHT22;8103;51.340;12.326;2023-03-19T04:50:49;10.20;98.10
15997;DHT22;8103;51.340;12.326;2023-03-19T04:53:19;10.20;93.90
15997;DHT22;8103;51.340;12.326;2023-03-19T04:55:46;10.10;94.20
15997;DHT22;8103;51.340;12.326;2023-03-19T04:58:13;10.00;94.30
15997;DHT22;8103;51.340;12.326;2023-03-19T05:00:39;10.00;94.50
15997;DHT22;8103;51.340;12.326;2023-03-19T05:03:06;9.90;94.80
15997;DHT22;8103;51.340;12.326;2023-03-19T05:05:33;9.80;95.30
15997;DHT22;8103;51.340;12.326;2023-03-19T05:08:00;9.80;95.20
15997;DHT22;8103;51.340;12.326;2023-03-19T05:10:27;9.70;95.40
15997;DHT22;8103;51.340;12.326;2023-03-19T05:12:54;9.70;95.50
15997;DHT22;8103;51.340;12.326;2023-03-19T05:15:21;9.70;95.60
15997;DHT22;8103;51.340;12.326;2023-03-19T05:17:47;9.70;95.60
15997;DHT22;8103;51.340;12.326;2023-03-19T05:20:14;9.70;95.80
15997;DHT22;8103;51.340;12.326;2023-03-19T05:22:41;9.70;95.90
15997;DHT22;8103;51.340;12.326;2023-03-19T05:25:08;9.70;96.00
15997;DHT22;8103;51.340;12.326;2023-03-19T05:27:35;9.60;96.10
15997;DHT22;8103;51.340;12.326;2023-03-19T05:30:03;9.60;96.20
15997;DHT22;8103;51.340;12.326;2023-03-19T05:32:31;9.60;96.30
15997;DHT22;8103;51.340;12.326;2023-03-19T05:34:58;9.60;96.50
15997;DHT22;8103;51.340;12.326;2023-03-19T05:37:25;9.50;96.50
15997;DHT22;8103;51.340;12.326;2023-03-19T05:39:52;9.50;96.50
15997;DHT22;8103;51.340;12.326;2023-03-19T05:42:18;9.40;96.60
15997;DHT22;8103;51.340;12.326;2023-03-19T05:44:45;9.40;96.60
15997;DHT22;8103;51.340;12.326;2023-03-19T05:47:12;9.40;96.60
15997;DHT22;8103;51.340;12.326;2023-03-19T05:49:39;9.40;96.60
15997;DHT22;8103;51.340;12.326;2023-03-19T05:52:07;9.40;96.60
15997;DHT22;8103;51.340;12.326;2023-03-19T05:54:34;9.40;96.70
15997;DHT22;8103;51.340;12.326;2023-03-19T05:57:01;9.30;97.00
15997;DHT22;8103;51.340;12.326;2023-03-19T05:59:29;9.40;96.80
15997;DHT22;8103;51.340;12.326;2023-03-19T06:01:58;9.30;96.90
15997;DHT22;8103;51.340;12.326;2023-03-19T06:04:25;9.40;96.80
15997;DHT22;8103;51.340;12.326;2023-03-19T06:06:52;9.40;96.80
15997;DHT22;8103;51.340;12.326;2023-03-19T06:09:19;9.40;96.80
15997;DHT22;8103;51.340;12.326;2023-03-19T06:11:46;9.40;96.80
15997;DHT22;8103;51.340;12.326;2023-03-19T06:14:13;9.50;97.10
15997;DHT22;8103;51.340;12.326;2023-03-19T06:16:40;9.50;96.70
15997;DHT22;8103;51.340;12.326;2023-03-19T06:19:06;9.50;96.60
15997;DHT22;8103;51.340;12.326;2023-03-19T06:21:33;9.60;96.50
15997;DHT22;8103;51.340;12.326;2023-03-19T06:24:00;9.60;96.40
15997;DHT22;8103;51.340;12.326;2023-03-19T06:26:27;9.70;96.30
15997;DHT22;8103;51.340;12.326;2023-03-19T06:28:54;9.80;96.30
15997;DHT22;8103;51.340;12.326;2023-03-19T06:31:21;9.80;96.20
15997;DHT22;8103;51.340;12.326;2023-03-19T06:33:48;9.90;96.10
15997;DHT22;8103;51.340;12.326;2023-03-19T06:36:16;10.10;96.20
15997;DHT22;8103;51.340;12.326;2023-03-19T06:38:43;10.30;96.00
15997;DHT22;8103;51.340;12.326;2023-03-19T06:41:10;10.40;95.50
15997;DHT22;8103;51.340;12.326;2023-03-19T06:43:37;10.50;94.90
15997;DHT22;8103;51.340;12.326;2023-03-19T06:46:07;10.70;94.80
15997;DHT22;8103;51.340;12.326;2023-03-19T06:48:37;10.80;94.30
15997;DHT22;8103;51.340;12.326;2023-03-19T06:51:04;10.80;93.80
15997;DHT22;8103;51.340;12.326;2023-03-19T06:53:31;10.90;93.70
15997;DHT22;8103;51.340;12.326;2023-03-19T06:55:59;10.90;93.30
15997;DHT22;8103;51.340;12.326;2023-03-19T07:02:26;10.80;93.40
15997;DHT22;8103;51.340;12.326;2023-03-19T07:04:53;10.80;93.40
15997;DHT22;8103;51.340;12.326;2023-03-19T07:07:20;10.80;93.40
15997;DHT22;8103;51.340;12.326;2023-03-19T07:09:47;10.90;93.40
15997;DHT22;8103;51.340;12.326;2023-03-19T07:12:13;10.90;93.30
15997;DHT22;8103;51.340;12.326;2023-03-19T07:14:40;11.00;93.30
15997;DHT22;8103;51.340;12.326;2023-03-19T07:17:07;11.00;93.20
15997;DHT22;8103;51.340;12.326;2023-03-19T07:19:35;11.10;93.10
15997;DHT22;8103;51.340;12.326;2023-03-19T07:22:02;11.20;93.10
15997;DHT22;8103;51.340;12.326;2023-03-19T07:24:29;11.30;93.10
15997;DHT22;8103;51.340;12.326;2023-03-19T07:26:56;11.40;93.00
15997;DHT22;8103;51.340;12.326;2023-03-19T07:29:23;11.70;92.80
15997;DHT22;8103;51.340;12.326;2023-03-19T07:31:49;11.80;92.30
15997;DHT22;8103;51.340;12.326;2023-03-19T07:34:16;12.00;92.00
15997;DHT22;8103;51.340;12.326;2023-03-19T07:36:43;12.20;91.70
15997;DHT22;8103;51.340;12.326;2023-03-19T07:39:10;12.30;91.40
15997;DHT22;8103;51.340;12.326;2023-03-19T07:41:37;12.40;91.20
15997;DHT22;8103;51.340;12.326;2023-03-19T07:44:04;12.50;91.00
15997;DHT22;8103;51.340;12.326;2023-03-19T07:46:31;12.60;90.90
15997;DHT22;8103;51.340;12.326;2023-03-19T07:48:58;12.70;90.80
15997;DHT22;8103;51.340;12.326;2023-03-19T07:51:24;12.80;90.50
15997;DHT22;8103;51.340;12.326;2023-03-19T07:53:51;12.90;90.20
15997;DHT22;8103;51.340;12.326;2023-03-19T07:56:18;12.90;89.60
15997;DHT22;8103;51.340;12.326;2023-03-19T07:58:45;12.90;89.40
15997;DHT22;8103;51.340;12.326;2023-03-19T08:01:12;12.90;89.60
15997;DHT22;8103;51.340;12.326;2023-03-19T08:03:39;12.90;89.90
15997;DHT22;8103;51.340;12.326;2023-03-19T08:06:06;12.90;89.90
15997;DHT22;8103;51.340;12.326;2023-03-19T08:08:32;12.90;90.10
15997;DHT22;8103;51.340;12.326;2023-03-19T08:11:00;13.00;90.10
15997;DHT22;8103;51.340;12.326;2023-03-19T08:13:28;13.20;90.00
15997;DHT22;8103;51.340;12.326;2023-03-19T08:15:55;13.40;89.60
15997;DHT22;8103;51.340;12.326;2023-03-19T08:18:22;13.50;89.20
15997;DHT22;8103;51.340;12.326;2023-03-19T08:20:49;13.70;88.90
15997;DHT22;8103;51.340;12.326;2023-03-19T08:23:16;13.90;88.30
15997;DHT22;8103;51.340;12.326;2023-03-19T08:25:43;14.20;86.80
15997;DHT22;8103;51.340;12.326;2023-03-19T08:28:10;14.30;86.20
15997;DHT22;8103;51.340;12.326;2023-03-19T08:30:37;14.50;86.30
15997;DHT22;8103;51.340;12.326;2023-03-19T08:33:05;14.60;84.90
15997;DHT22;8103;51.340;12.326;2023-03-19T08:35:32;14.70;84.90
15997;DHT22;8103;51.340;12.326;2023-03-19T08:37:59;14.70;84.70
15997;DHT22;8103;51.340;12.326;2023-03-19T08:40:25;14.90;84.60
15997;DHT22;8103;51.340;12.326;2023-03-19T08:42:53;15.00;84.10
15997;DHT22;8103;51.340;12.326;2023-03-19T08:45:21;15.20;83.80
15997;DHT22;8103;51.340;12.326;2023-03-19T08:47:48;15.40;83.00
15997;DHT22;8103;51.340;12.326;2023-03-19T08:50:15;15.40;82.40
15997;DHT22;8103;51.340;12.326;2023-03-19T08:52:43;15.50;81.90
15997;DHT22;8103;51.340;12.326;2023-03-19T08:55:11;15.70;81.50
15997;DHT22;8103;51.340;12.326;2023-03-19T08:57:38;15.70;81.20
15997;DHT22;8103;51.340;12.326;2023-03-19T09:06:39;16.00;80.10
15997;DHT22;8103;51.340;12.326;2023-03-19T09:09:06;16.10;79.00
15997;DHT22;8103;51.340;12.326;2023-03-19T09:11:33;16.10;77.60
15997;DHT22;8103;51.340;12.326;2023-03-19T09:14:00;16.10;77.20
15997;DHT22;8103;51.340;12.326;2023-03-19T09:16:27;16.10;77.10
15997;DHT22;8103;51.340;12.326;2023-03-19T09:18:54;16.30;77.20
15997;DHT22;8103;51.340;12.326;2023-03-19T09:21:24;16.50;76.40
15997;DHT22;8103;51.340;12.326;2023-03-19T09:23:51;16.70;75.20
15997;DHT22;8103;51.340;12.326;2023-03-19T09:26:18;16.90;74.70
15997;DHT22;8103;51.340;12.326;2023-03-19T09:28:45;17.00;73.60
15997;DHT22;8103;51.340;12.326;2023-03-19T09:31:11;17.10;73.10
15997;DHT22;8103;51.340;12.326;2023-03-19T09:33:38;17.30;72.20
15997;DHT22;8103;51.340;12.326;2023-03-19T09:36:06;17.50;71.30
15997;DHT22;8103;51.340;12.326;2023-03-19T09:38:33;17.70;70.40
15997;DHT22;8103;51.340;12.326;2023-03-19T09:41:26;17.90;69.40
15997;DHT22;8103;51.340;12.326;2023-03-19T09:44:03;18.20;67.50
15997;DHT22;8103;51.340;12.326;2023-03-19T09:49:31;18.80;64.80
15997;DHT22;8103;51.340;12.326;2023-03-19T09:57:55;19.10;62.30
15997;DHT22;8103;51.340;12.326;2023-03-19T10:00:29;19.20;62.00
15997;DHT22;8103;51.340;12.326;2023-03-19T10:03:26;19.30;60.90
15997;DHT22;8103;51.340;12.326;2023-03-19T10:06:05;19.20;60.40
15997;DHT22;8103;51.340;12.326;2023-03-19T10:13:13;18.90;61.90
15997;DHT22;8103;51.340;12.326;2023-03-19T10:15:54;19.00;61.70
15997;DHT22;8103;51.340;12.326;2023-03-19T10:18:32;19.00;61.30
15997;DHT22;8103;51.340;12.326;2023-03-19T10:21:21;18.80;61.30
15997;DHT22;8103;51.340;12.326;2023-03-19T10:24:24;18.80;61.60
15997;DHT22;8103;51.340;12.326;2023-03-19T10:27:00;18.80;61.90
15997;DHT22;8103;51.340;12.326;2023-03-19T10:29:35;18.50;62.30
15997;DHT22;8103;51.340;12.326;2023-03-19T10:35:26;18.20;63.10
15997;DHT22;8103;51.340;12.326;2023-03-19T10:38:22;17.90;64.80
15997;DHT22;8103;51.340;12.326;2023-03-19T10:43:49;17.40;67.30
15997;DHT22;8103;51.340;12.326;2023-03-19T10:46:18;17.40;67.70
15997;DHT22;8103;51.340;12.326;2023-03-19T10:48:47;17.50;67.80
15997;DHT22;8103;51.340;12.326;2023-03-19T10:55:25;17.80;68.70
15997;DHT22;8103;51.340;12.326;2023-03-19T10:58:04;18.00;71.30
15997;DHT22;8103;51.340;12.326;2023-03-19T11:00:45;17.90;78.00
15997;DHT22;8103;51.340;12.326;2023-03-19T11:06:30;17.70;66.20
15997;DHT22;8103;51.340;12.326;2023-03-19T11:09:13;17.50;66.90
15997;DHT22;8103;51.340;12.326;2023-03-19T11:11:46;17.30;67.50
15997;DHT22;8103;51.340;12.326;2023-03-19T11:14:34;17.20;69.00
15997;DHT22;8103;51.340;12.326;2023-03-19T11:17:15;17.20;69.00
15997;DHT22;8103;51.340;12.326;2023-03-19T11:19:55;17.30;71.00
15997;DHT22;8103;51.340;12.326;2023-03-19T11:22:26;17.50;83.30
15997;DHT22;8103;51.340;12.326;2023-03-19T11:24:59;18.00;68.60
15997;DHT22;8103;51.340;12.326;2023-03-19T11:27:31;18.90;65.90
15997;DHT22;8103;51.340;12.326;2023-03-19T11:30:11;19.60;63.80
15997;DHT22;8103;51.340;12.326;2023-03-19T11:32:56;20.10;62.90
15997;DHT22;8103;51.340;12.326;2023-03-19T11:42:09;20.20;61.20
15997;DHT22;8103;51.340;12.326;2023-03-19T11:45:19;20.00;62.10
15997;DHT22;8103;51.340;12.326;2023-03-19T11:50:40;19.70;63.00
15997;DHT22;8103;51.340;12.326;2023-03-19T11:53:39;19.70;62.90
15997;DHT22;8103;51.340;12.326;2023-03-19T11:56:41;19.60;63.00
15997;DHT22;8103;51.340;12.326;2023-03-19T11:59:16;19.50;63.50
15997;DHT22;8103;51.340;12.326;2023-03-19T12:05:23;20.80;61.30
15997;DHT22;8103;51.340;12.326;2023-03-19T12:11:15;23.20;55.80
15997;DHT22;8103;51.340;12.326;2023-03-19T12:14:14;24.20;52.40
15997;DHT22;8103;51.340;12.326;2023-03-19T12:26:48;22.20;54.30
15997;DHT22;8103;51.340;12.326;2023-03-19T12:29:40;20.60;58.50
15997;DHT22;8103;51.340;12.326;2023-03-19T12:35:35;19.30;63.50
15997;DHT22;8103;51.340;12.326;2023-03-19T12:40:59;18.70;67.90
15997;DHT22;8103;51.340;12.326;2023-03-19T12:46:44;18.30;72.30
15997;DHT22;8103;51.340;12.326;2023-03-19T12:49:32;18.30;74.30
15997;DHT22;8103;51.340;12.326;2023-03-19T12:52:23;18.30;77.20
15997;DHT22;8103;51.340;12.326;2023-03-19T13:00:29;17.10;84.90
15997;DHT22;8103;51.340;12.326;2023-03-19T13:03:17;16.90;83.70
15997;DHT22;8103;51.340;12.326;2023-03-19T13:06:09;16.80;84.60
15997;DHT22;8103;51.340;12.326;2023-03-19T13:08:54;16.60;86.00
15997;DHT22;8103;51.340;12.326;2023-03-19T13:11:53;16.40;88.30
15997;DHT22;8103;51.340;12.326;2023-03-19T13:14:36;16.50;88.50
15997;DHT22;8103;51.340;12.326;2023-03-19T13:23:44;16.60;92.10
15997;DHT22;8103;51.340;12.326;2023-03-19T13:26:15;16.40;96.80
15997;DHT22;8103;51.340;12.326;2023-03-19T13:29:18;16.10;90.50
15997;DHT22;8103;51.340;12.326;2023-03-19T13:31:49;15.70;91.50
15997;DHT22;8103;51.340;12.326;2023-03-19T13:39:36;15.10;93.90
15997;DHT22;8103;51.340;12.326;2023-03-19T13:44:50;14.90;95.10
15997;DHT22;8103;51.340;12.326;2023-03-19T13:50:22;14.90;96.50
15997;DHT22;8103;51.340;12.326;2023-03-19T13:53:22;14.90;97.30
15997;DHT22;8103;51.340;12.326;2023-03-19T13:56:08;15.00;98.10
15997;DHT22;8103;51.340;12.326;2023-03-19T14:01:43;14.90;99.30
15997;DHT22;8103;51.340;12.326;2023-03-19T14:04:29;14.70;99.50
15997;DHT22;8103;51.340;12.326;2023-03-19T14:07:38;14.40;99.90
15997;DHT22;8103;51.340;12.326;2023-03-19T14:10:21;14.10;99.90
15997;DHT22;8103;51.340;12.326;2023-03-19T14:13:00;13.90;99.90
15997;DHT22;8103;51.340;12.326;2023-03-19T14:19:40;13.70;99.90
15997;DHT22;8103;51.340;12.326;2023-03-19T14:22:19;13.70;99.90
15997;DHT22;8103;51.340;12.326;2023-03-19T14:25:18;13.70;99.90
15997;DHT22;8103;51.340;12.326;2023-03-19T14:27:53;13.90;99.90
15997;DHT22;8103;51.340;12.326;2023-03-19T14:30:39;14.00;99.90
15997;DHT22;8103;51.340;12.326;2023-03-19T14:33:21;14.10;99.90
15997;DHT22;8103;51.340;12.326;2023-03-19T14:40:11;14.20;99.90
15997;DHT22;8103;51.340;12.326;2023-03-19T14:42:49;14.20;99.90
15997;DHT22;8103;51.340;12.326;2023-03-19T14:45:51;14.10;99.90
15997;DHT22;8103;51.340;12.326;2023-03-19T14:51:49;14.00;99.90
15997;DHT22;8103;51.340;12.326;2023-03-19T14:54:24;13.90;99.90
15997;DHT22;8103;51.340;12.326;2023-03-19T14:57:05;14.00;99.90
15997;DHT22;8103;51.340;12.326;2023-03-19T14:59:38;14.00;99.90
15997;DHT22;8103;51.340;12.326;2023-03-19T15:02:36;13.90;99.90
15997;DHT22;8103;51.340;12.326;2023-03-19T15:05:28;13.90;99.90
15997;DHT22;8103;51.340;12.326;2023-03-19T15:18:09;13.70;99.90
15997;DHT22;8103;51.340;12.326;2023-03-19T15:24:47;13.60;99.90
15997;DHT22;8103;51.340;12.326;2023-03-19T15:27:17;13.60;99.90
15997;DHT22;8103;51.340;12.326;2023-03-19T15:29:45;13.60;99.90
15997;DHT22;8103;51.340;12.326;2023-03-19T15:32:33;13.60;99.90
15997;DHT22;8103;51.340;12.326;2023-03-19T15:35:34;13.60;99.90
15997;DHT22;8103;51.340;12.326;2023-03-19T15:38:06;13.60;99.90
15997;DHT22;8103;51.340;12.326;2023-03-19T15:40:36;13.60;99.90
15997;DHT22;8103;51.340;12.326;2023-03-19T15:43:08;13.60;99.90
15997;DHT22;8103;51.340;12.326;2023-03-19T15:45:39;13.60;99.90
15997;DHT22;8103;51.340;12.326;2023-03-19T15:48:24;13.60;99.90
15997;DHT22;8103;51.340;12.326;2023-03-19T15:51:05;13.60;99.90
15997;DHT22;8103;51.340;12.326;2023-03-19T15:53:35;13.50;99.90
15997;DHT22;8103;51.340;12.326;2023-03-19T15:56:04;13.50;99.90
15997;DHT22;8103;51.340;12.326;2023-03-19T15:58:37;13.60;99.90
15997;DHT22;8103;51.340;12.326;2023-03-19T16:01:09;13.60;99.90
15997;DHT22;8103;51.340;12.326;2023-03-19T16:03:40;13.60;99.90
15997;DHT22;8103;51.340;12.326;2023-03-19T16:06:30;13.50;99.90
15997;DHT22;8103;51.340;12.326;2023-03-19T16:09:23;13.60;99.90
15997;DHT22;8103;51.340;12.326;2023-03-19T16:11:54;13.60;99.90
15997;DHT22;8103;51.340;12.326;2023-03-19T16:17:01;13.60;99.90
15997;DHT22;8103;51.340;12.326;2023-03-19T16:20:00;13.60;99.90
15997;DHT22;8103;51.340;12.326;2023-03-19T16:22:30;13.50;99.90
15997;DHT22;8103;51.340;12.326;2023-03-19T16:24:59;13.50;99.90
15997;DHT22;8103;51.340;12.326;2023-03-19T16:31:42;13.40;99.90
15997;DHT22;8103;51.340;12.326;2023-03-19T16:34:23;13.30;99.90
15997;DHT22;8103;51.340;12.326;2023-03-19T16:36:58;13.30;99.90
15997;DHT22;8103;51.340;12.326;2023-03-19T16:39:36;13.20;99.90
15997;DHT22;8103;51.340;12.326;2023-03-19T16:50:39;13.20;99.90
15997;DHT22;8103;51.340;12.326;2023-03-19T16:55:49;13.20;99.90
15997;DHT22;8103;51.340;12.326;2023-03-19T17:02:18;13.30;99.90
15997;DHT22;8103;51.340;12.326;2023-03-19T17:04:49;13.20;99.90
15997;DHT22;8103;51.340;12.326;2023-03-19T17:11:31;13.10;99.90
15997;DHT22;8103;51.340;12.326;2023-03-19T17:14:02;13.00;99.90
15997;DHT22;8103;51.340;12.326;2023-03-19T17:16:32;13.00;99.90
15997;DHT22;8103;51.340;12.326;2023-03-19T17:18:59;13.00;99.90
15997;DHT22;8103;51.340;12.326;2023-03-19T17:25:32;12.90;99.90
15997;DHT22;8103;51.340;12.326;2023-03-19T17:28:00;12.90;99.90
15997;DHT22;8103;51.340;12.326;2023-03-19T17:30:27;12.80;99.90
15997;DHT22;8103;51.340;12.326;2023-03-19T17:32:54;12.80;99.90
15997;DHT22;8103;51.340;12.326;2023-03-19T17:35:29;12.80;99.90
15997;DHT22;8103;51.340;12.326;2023-03-19T17:37:57;12.80;99.90
15997;DHT22;8103;51.340;12.326;2023-03-19T17:40:25;12.70;99.90
15997;DHT22;8103;51.340;12.326;2023-03-19T17:42:54;12.70;99.90
15997;DHT22;8103;51.340;12.326;2023-03-19T17:45:26;12.60;99.90
15997;DHT22;8103;51.340;12.326;2023-03-19T17:47:57;12.60;99.90
15997;DHT22;8103;51.340;12.326;2023-03-19T17:50:29;12.60;99.90
15997;DHT22;8103;51.340;12.326;2023-03-19T17:52:58;12.50;99.90
15997;DHT22;8103;51.340;12.326;2023-03-19T17:55:28;12.50;99.90
15997;DHT22;8103;51.340;12.326;2023-03-19T17:57:55;12.40;99.90
15997;DHT22;8103;51.340;12.326;2023-03-19T18:00:23;12.40;99.90
15997;DHT22;8103;51.340;12.326;2023-03-19T18:02:52;12.40;99.90
15997;DHT22;8103;51.340;12.326;2023-03-19T18:05:22;12.40;99.90
15997;DHT22;8103;51.340;12.326;2023-03-19T18:07:53;12.30;99.90
15997;DHT22;8103;51.340;12.326;2023-03-19T18:10:23;12.30;99.90
15997;DHT22;8103;51.340;12.326;2023-03-19T18:12:56;12.30;99.90
15997;DHT22;8103;51.340;12.326;2023-03-19T18:15:26;12.30;99.90
15997;DHT22;8103;51.340;12.326;2023-03-19T18:17:57;12.30;99.90
15997;DHT22;8103;51.340;12.326;2023-03-19T18:20:32;12.30;99.90
15997;DHT22;8103;51.340;12.326;2023-03-19T18:23:03;12.30;99.90
15997;DHT22;8103;51.340;12.326;2023-03-19T18:25:31;12.30;99.90
15997;DHT22;8103;51.340;12.326;2023-03-19T18:28:02;12.30;99.90
15997;DHT22;8103;51.340;12.326;2023-03-19T18:30:35;12.30;99.90
15997;DHT22;8103;51.340;12.326;2023-03-19T18:33:06;12.30;99.90
15997;DHT22;8103;51.340;12.326;2023-03-19T18:35:40;12.30;99.90